Time;durP1;ratioP1;P1;durP2;ratioP2;P2;SDS_P1;SDS_P2;PMS_P1;PMS_P2;Temp;Humidity;BMP_temperature;BMP_pressure;BME280_temperature;BME280_humidity;BME280_pressure;Samples;Min_cycle;Max_cycle;Signal;HPM_P1;HPM_P2
2023/08/24 00:01:17;;;;;;;4.65;2.08;;;20.20;99.90;;;;;;5062941;28;20051;-63
2023/08/24 00:03:46;;;;;;;7.38;2.00;;;20.20;99.90;;;;;;5058813;28;20025;-63
2023/08/24 00:06:12;;;;;;;4.18;1.60;;;20.10;99.90;;;;;;5059601;28;20470;-64
2023/08/24 00:08:38;;;;;;;2.47;1.90;;;20.10;99.90;;;;;;5056649;28;20033;-63
2023/08/24 00:11:05;;;;;;;3.25;2.05;;;20.00;99.90;;;;;;5057549;28;20038;-64
2023/08/24 00:13:31;;;;;;;2.53;2.10;;;20.00;99.90;;;;;;5056435;28;20127;-64
2023/08/24 00:15:57;;;;;;;3.42;1.85;;;19.90;99.90;;;;;;5062672;28;20399;-63
2023/08/24 00:18:24;;;;;;;3.53;2.25;;;19.70;99.90;;;;;;5062205;28;20028;-63
2023/08/24 00:20:49;;;;;;;7.32;2.83;;;19.60;99.90;;;;;;5059059;28;20024;-64
2023/08/24 00:23:15;;;;;;;5.22;2.05;;;19.50;99.90;;;;;;5059771;28;20032;-63
2023/08/24 00:25:41;;;;;;;3.80;2.22;;;19.40;99.90;;;;;;5062237;28;20036;-63
2023/08/24 00:28:07;;;;;;;2.97;2.00;;;19.30;99.90;;;;;;5057296;28;20036;-63
2023/08/24 00:30:33;;;;;;;3.75;2.30;;;19.20;99.90;;;;;;5051398;28;20447;-64
2023/08/24 00:32:59;;;;;;;6.35;2.28;;;19.10;99.90;;;;;;5060852;28;20033;-63
2023/08/24 00:35:25;;;;;;;4.30;2.25;;;19.10;99.90;;;;;;5061452;28;20869;-63
2023/08/24 00:37:51;;;;;;;2.50;1.75;;;19.00;99.90;;;;;;5063167;28;20082;-63
2023/08/24 00:40:18;;;;;;;6.03;2.50;;;19.00;99.90;;;;;;5062475;28;20438;-63
2023/08/24 00:42:45;;;;;;;2.60;2.33;;;18.90;99.90;;;;;;5052527;28;20112;-63
2023/08/24 00:45:12;;;;;;;2.28;2.08;;;18.90;99.90;;;;;;5058389;28;20070;-63
2023/08/24 00:47:46;;;;;;;3.40;2.20;;;18.90;99.90;;;;;;5052459;28;20048;-63
2023/08/24 00:50:12;;;;;;;3.85;2.47;;;18.90;99.90;;;;;;5059757;28;20036;-63
2023/08/24 00:52:41;;;;;;;3.90;2.28;;;18.80;99.90;;;;;;5052977;28;20133;-63
2023/08/24 00:55:08;;;;;;;4.35;2.70;;;18.80;99.90;;;;;;5061120;28;20043;-63
2023/08/24 00:57:36;;;;;;;2.78;2.58;;;18.70;99.90;;;;;;5052714;28;20020;-63
2023/08/24 01:00:05;;;;;;;2.90;2.38;;;18.70;99.90;;;;;;5057343;28;20432;-63
2023/08/24 01:02:32;;;;;;;4.10;2.58;;;18.70;99.90;;;;;;5055352;28;20531;-63
2023/08/24 01:04:59;;;;;;;3.30;2.70;;;18.70;99.90;;;;;;5055849;28;20860;-63
2023/08/24 01:07:25;;;;;;;3.72;2.78;;;18.70;99.90;;;;;;5054022;28;20036;-63
2023/08/24 01:09:52;;;;;;;6.35;2.42;;;18.80;99.90;;;;;;5061431;28;20052;-63
2023/08/24 01:13:00;;;;;;;2.85;2.17;;;18.80;99.90;;;;;;5061887;28;20101;-63
2023/08/24 01:15:55;;;;;;;3.10;2.25;;;18.70;99.90;;;;;;5040821;28;20033;-63
2023/08/24 01:18:23;;;;;;;3.47;2.63;;;18.60;99.90;;;;;;5072144;28;20526;-63
2023/08/24 01:20:54;;;;;;;3.17;2.53;;;18.60;99.90;;;;;;5055226;28;20515;-64
2023/08/24 01:23:42;;;;;;;3.47;2.67;;;18.50;99.90;;;;;;5056554;28;20029;-63
2023/08/24 01:26:17;;;;;;;3.15;2.65;;;18.50;99.90;;;;;;5054686;28;20025;-63
2023/08/24 01:28:44;;;;;;;2.65;2.40;;;18.50;99.90;;;;;;5050494;28;20024;-64
2023/08/24 01:31:10;;;;;;;2.80;2.50;;;18.60;99.90;;;;;;5054426;28;20032;-63
2023/08/24 01:33:36;;;;;;;2.50;2.30;;;18.70;99.90;;;;;;5055101;28;20518;-63
2023/08/24 01:36:02;;;;;;;2.58;2.38;;;18.90;99.90;;;;;;5056414;28;20526;-64
2023/08/24 01:38:29;;;;;;;2.85;2.55;;;19.00;99.90;;;;;;5055133;28;20050;-63
2023/08/24 01:41:25;;;;;;;3.03;2.67;;;19.10;99.90;;;;;;5057002;28;20083;-63
2023/08/24 01:43:54;;;;;;;2.85;2.53;;;19.10;99.90;;;;;;5075512;28;20060;-64
2023/08/24 01:46:21;;;;;;;4.55;2.63;;;19.20;99.90;;;;;;5061577;28;20525;-64
2023/08/24 01:48:49;;;;;;;4.43;2.53;;;19.20;99.90;;;;;;5066245;28;20040;-64
2023/08/24 01:51:16;;;;;;;4.80;2.88;;;19.20;99.90;;;;;;5065445;28;20040;-63
2023/08/24 01:53:45;;;;;;;3.92;2.30;;;19.20;99.90;;;;;;5054192;28;20032;-63
2023/08/24 01:56:12;;;;;;;6.38;2.53;;;19.20;99.90;;;;;;5056113;28;20120;-63
2023/08/24 01:58:38;;;;;;;2.92;2.22;;;19.20;99.90;;;;;;5060197;28;20021;-64
2023/08/24 02:01:05;;;;;;;2.90;2.47;;;19.30;99.90;;;;;;5060786;28;20258;-64
2023/08/24 02:03:31;;;;;;;3.42;2.60;;;19.30;99.90;;;;;;5064762;28;20035;-64
2023/08/24 02:05:57;;;;;;;3.28;2.42;;;19.30;99.90;;;;;;5063305;28;20033;-63
2023/08/24 02:08:23;;;;;;;2.58;2.20;;;19.30;99.90;;;;;;5062538;28;20032;-64
2023/08/24 02:10:48;;;;;;;3.85;2.13;;;19.30;99.90;;;;;;5059529;28;20500;-63
2023/08/24 02:13:14;;;;;;;3.10;2.30;;;19.30;99.90;;;;;;5058673;28;20028;-63
2023/08/24 02:15:40;;;;;;;3.63;2.45;;;19.30;99.90;;;;;;5072461;28;20082;-63
2023/08/24 02:18:08;;;;;;;2.55;2.20;;;19.30;99.90;;;;;;5063077;28;20503;-63
2023/08/24 02:20:38;;;;;;;2.90;2.15;;;19.30;99.90;;;;;;5063336;28;20031;-63
2023/08/24 02:23:04;;;;;;;2.30;2.10;;;19.20;99.90;;;;;;5062921;28;20024;-63
2023/08/24 02:25:31;;;;;;;2.25;2.03;;;19.20;99.90;;;;;;5063574;28;20032;-64
2023/08/24 02:27:57;;;;;;;2.72;2.30;;;19.10;99.90;;;;;;5077882;28;20057;-64
2023/08/24 02:30:23;;;;;;;4.20;2.20;;;19.00;99.90;;;;;;5059123;28;20054;-63
2023/08/24 02:32:49;;;;;;;2.97;2.53;;;19.00;99.90;;;;;;5055564;28;20033;-64
2023/08/24 02:35:15;;;;;;;4.10;2.30;;;19.00;99.90;;;;;;5058085;28;20029;-63
2023/08/24 02:37:41;;;;;;;6.25;2.63;;;18.90;99.90;;;;;;5064129;28;20119;-63
2023/08/24 02:40:09;;;;;;;3.70;2.40;;;18.90;99.90;;;;;;5057679;28;20795;-63
2023/08/24 02:42:35;;;;;;;4.25;2.63;;;18.90;99.90;;;;;;5054431;28;20028;-64
2023/08/24 02:45:01;;;;;;;2.67;2.33;;;18.80;99.90;;;;;;5055224;28;20078;-63
2023/08/24 02:47:26;;;;;;;2.90;2.25;;;18.80;99.90;;;;;;5059838;28;20498;-63
2023/08/24 02:49:52;;;;;;;4.53;2.67;;;18.80;99.90;;;;;;5057791;28;20037;-63
2023/08/24 02:52:18;;;;;;;3.72;2.70;;;18.80;99.90;;;;;;5056573;28;20718;-63
2023/08/24 02:54:44;;;;;;;3.38;2.42;;;18.90;99.90;;;;;;5063728;28;20033;-63
2023/08/24 02:57:10;;;;;;;3.08;2.63;;;18.90;99.90;;;;;;5077714;28;20051;-64
2023/08/24 02:59:36;;;;;;;4.70;2.53;;;18.90;99.90;;;;;;5061672;28;20028;-63
2023/08/24 03:02:02;;;;;;;2.88;2.50;;;18.90;99.90;;;;;;5061394;28;20036;-63
2023/08/24 03:04:28;;;;;;;3.78;2.55;;;18.90;99.90;;;;;;5059366;28;20092;-64
2023/08/24 03:06:54;;;;;;;4.65;2.80;;;18.90;99.90;;;;;;5073506;28;20139;-63
2023/08/24 03:09:20;;;;;;;6.75;2.47;;;19.00;99.90;;;;;;5055278;28;20024;-63
2023/08/24 03:11:45;;;;;;;3.72;2.72;;;19.00;99.90;;;;;;5058618;28;20024;-63
2023/08/24 03:14:11;;;;;;;2.42;2.20;;;19.10;99.90;;;;;;5063717;28;20543;-63
2023/08/24 03:16:39;;;;;;;2.92;2.60;;;19.10;99.90;;;;;;5062098;28;20584;-63
2023/08/24 03:19:05;;;;;;;2.42;2.22;;;19.20;99.90;;;;;;5075474;28;20029;-63
2023/08/24 03:21:32;;;;;;;3.67;2.72;;;19.20;99.90;;;;;;5055391;28;20158;-63
2023/08/24 03:23:58;;;;;;;2.70;2.45;;;19.20;99.90;;;;;;5073507;28;20131;-63
2023/08/24 03:26:24;;;;;;;3.20;2.20;;;19.20;99.90;;;;;;5059406;28;20033;-64
2023/08/24 03:28:50;;;;;;;4.28;2.70;;;19.30;99.90;;;;;;5057035;28;20036;-63
2023/08/24 03:31:16;;;;;;;2.50;2.30;;;19.20;99.90;;;;;;5054316;28;20041;-64
2023/08/24 03:33:42;;;;;;;4.25;2.70;;;19.30;99.90;;;;;;5052753;28;20029;-63
2023/08/24 03:36:09;;;;;;;4.15;2.00;;;19.30;99.90;;;;;;5057261;28;20041;-63
2023/08/24 03:38:35;;;;;;;4.95;2.40;;;19.40;99.90;;;;;;5057056;28;20034;-63
2023/08/24 03:41:05;;;;;;;2.70;2.47;;;19.40;99.90;;;;;;5056538;28;20085;-63
2023/08/24 03:43:35;;;;;;;3.55;2.33;;;19.40;99.90;;;;;;5052515;28;20119;-63
2023/08/24 03:46:05;;;;;;;2.90;2.30;;;19.40;99.90;;;;;;5055343;28;20032;-63
2023/08/24 03:48:32;;;;;;;2.97;2.45;;;19.40;99.90;;;;;;5060387;28;20646;-63
2023/08/24 03:50:58;;;;;;;2.50;2.22;;;19.40;99.90;;;;;;5060172;28;20032;-63
2023/08/24 03:53:25;;;;;;;2.90;2.42;;;19.40;99.90;;;;;;5076486;28;20051;-63
2023/08/24 03:55:52;;;;;;;3.22;2.10;;;19.40;99.90;;;;;;5073615;28;20408;-63
2023/08/24 03:58:19;;;;;;;3.42;2.33;;;19.40;99.90;;;;;;5057013;28;20029;-63
2023/08/24 04:00:46;;;;;;;2.22;2.08;;;19.40;99.90;;;;;;5054019;28;20136;-63
2023/08/24 04:03:12;;;;;;;3.78;2.50;;;19.40;99.90;;;;;;5057485;28;20020;-63
2023/08/24 04:05:38;;;;;;;2.33;2.00;;;19.50;99.90;;;;;;5058617;28;20024;-63
2023/08/24 04:08:05;;;;;;;3.30;2.40;;;19.50;99.90;;;;;;5074503;28;20040;-63
2023/08/24 04:10:31;;;;;;;3.25;2.10;;;19.50;99.90;;;;;;5059077;28;20480;-63
2023/08/24 04:12:58;;;;;;;2.72;2.13;;;19.50;99.90;;;;;;5058327;28;20024;-63
2023/08/24 04:15:24;;;;;;;2.55;2.30;;;19.50;99.90;;;;;;5061640;28;20439;-63
2023/08/24 04:17:50;;;;;;;2.92;2.13;;;19.50;99.90;;;;;;5071214;28;20024;-63
2023/08/24 04:20:16;;;;;;;3.53;2.45;;;19.50;99.90;;;;;;5055409;28;20104;-63
2023/08/24 04:22:42;;;;;;;7.40;2.38;;;19.50;99.90;;;;;;5058658;28;20116;-63
2023/08/24 04:25:08;;;;;;;3.63;2.20;;;19.50;99.90;;;;;;5058423;28;20669;-63
2023/08/24 04:27:35;;;;;;;2.38;2.10;;;19.50;99.90;;;;;;5055688;28;20110;-63
2023/08/24 04:30:00;;;;;;;2.35;2.10;;;19.50;99.90;;;;;;5053497;28;20121;-63
2023/08/24 04:32:27;;;;;;;3.22;2.65;;;19.50;99.90;;;;;;5057590;28;20070;-63
2023/08/24 04:34:53;;;;;;;3.35;2.40;;;19.50;99.90;;;;;;5059275;28;20151;-63
2023/08/24 04:37:19;;;;;;;2.92;2.10;;;19.50;99.90;;;;;;5055404;28;20613;-63
2023/08/24 04:39:46;;;;;;;4.38;2.60;;;19.50;99.90;;;;;;5057020;28;20066;-63
2023/08/24 04:42:11;;;;;;;4.30;2.42;;;19.50;99.90;;;;;;5062176;28;20035;-63
2023/08/24 04:44:37;;;;;;;2.75;2.13;;;19.50;99.90;;;;;;5060477;28;20024;-64
2023/08/24 04:47:03;;;;;;;2.58;2.28;;;19.50;99.90;;;;;;5060360;28;20484;-63
2023/08/24 04:49:30;;;;;;;2.70;2.25;;;19.60;99.90;;;;;;5058422;28;20025;-63
2023/08/24 04:51:56;;;;;;;3.55;2.00;;;19.60;99.90;;;;;;5057097;28;20067;-63
2023/08/24 04:54:22;;;;;;;4.05;2.55;;;19.70;99.90;;;;;;5055323;28;20056;-64
2023/08/24 04:56:48;;;;;;;3.70;2.08;;;19.70;99.90;;;;;;5053569;28;20029;-64
2023/08/24 04:59:14;;;;;;;3.85;2.30;;;19.70;99.90;;;;;;5062986;28;20035;-63
2023/08/24 05:01:39;;;;;;;2.83;2.50;;;19.70;99.90;;;;;;5060478;28;20035;-63
2023/08/24 05:04:05;;;;;;;3.58;2.15;;;19.80;99.90;;;;;;5060319;28;20040;-63
2023/08/24 05:06:31;;;;;;;2.92;2.00;;;19.80;99.90;;;;;;5057956;28;20024;-63
2023/08/24 05:08:57;;;;;;;2.75;2.33;;;19.80;99.90;;;;;;5057571;28;20760;-63
2023/08/24 05:11:26;;;;;;;2.65;2.20;;;19.80;99.90;;;;;;5055775;28;20131;-63
2023/08/24 05:13:51;;;;;;;4.32;2.35;;;19.80;99.90;;;;;;5069266;28;20120;-64
2023/08/24 05:16:17;;;;;;;3.30;2.60;;;19.90;99.90;;;;;;5059114;28;20403;-63
2023/08/24 05:18:43;;;;;;;2.88;2.35;;;19.90;99.90;;;;;;5060683;28;20113;-63
2023/08/24 05:21:09;;;;;;;6.57;2.20;;;19.90;99.90;;;;;;5060405;28;20028;-63
2023/08/24 05:23:35;;;;;;;4.10;2.22;;;20.00;99.90;;;;;;5061011;28;20126;-63
2023/08/24 05:26:02;;;;;;;3.97;2.35;;;20.00;99.90;;;;;;5063881;28;20041;-63
2023/08/24 05:28:29;;;;;;;4.07;2.95;;;20.00;99.90;;;;;;5060435;28;20035;-63
2023/08/24 05:30:56;;;;;;;6.95;4.00;;;20.10;99.90;;;;;;5057534;28;20048;-63
2023/08/24 05:33:23;;;;;;;5.97;3.63;;;20.10;99.90;;;;;;5062104;28;20733;-66
2023/08/24 05:35:50;;;;;;;4.85;2.80;;;20.10;99.90;;;;;;5064260;28;20035;-63
2023/08/24 05:38:16;;;;;;;22.17;11.32;;;20.20;99.90;;;;;;5064345;28;20074;-63
2023/08/24 05:40:51;;;;;;;9.88;5.50;;;20.30;99.90;;;;;;5062493;28;20844;-69
2023/08/24 05:43:17;;;;;;;4.57;3.88;;;20.50;99.90;;;;;;5039309;28;20036;-69
2023/08/24 05:45:44;;;;;;;6.28;2.65;;;20.60;99.90;;;;;;5058112;28;20029;-70
2023/08/24 05:48:11;;;;;;;4.70;2.72;;;20.70;99.90;;;;;;5060202;28;20579;-70
2023/08/24 05:50:37;;;;;;;3.90;2.97;;;20.70;99.90;;;;;;5059818;28;20036;-70
2023/08/24 05:53:03;;;;;;;3.83;2.88;;;20.80;99.90;;;;;;5065141;28;20028;-69
2023/08/24 05:55:29;;;;;;;5.75;2.35;;;20.80;99.90;;;;;;5065091;28;20116;-69
2023/08/24 05:57:55;;;;;;;4.30;3.38;;;20.80;99.90;;;;;;5061749;28;20047;-68
2023/08/24 06:00:22;;;;;;;4.93;2.45;;;20.80;99.90;;;;;;5062301;28;20128;-69
2023/08/24 06:02:48;;;;;;;3.88;2.53;;;20.90;99.90;;;;;;5058634;28;20029;-69
2023/08/24 06:05:13;;;;;;;3.80;2.40;;;20.90;99.90;;;;;;5060238;28;20028;-69
2023/08/24 06:07:39;;;;;;;3.45;2.40;;;21.00;99.90;;;;;;5059371;28;20850;-69
2023/08/24 06:10:06;;;;;;;2.42;2.17;;;21.00;99.90;;;;;;5059324;28;20476;-69
2023/08/24 06:12:32;;;;;;;3.25;2.60;;;21.00;99.90;;;;;;5064364;28;20033;-70
2023/08/24 06:14:58;;;;;;;7.43;2.70;;;21.10;99.90;;;;;;5061322;28;20032;-70
2023/08/24 06:17:23;;;;;;;3.78;2.42;;;21.10;99.90;;;;;;5062410;28;20047;-70
2023/08/24 06:19:49;;;;;;;4.45;2.70;;;21.10;99.90;;;;;;5059864;28;20779;-70
2023/08/24 06:22:15;;;;;;;4.72;2.63;;;21.10;99.90;;;;;;5060347;28;20051;-70
2023/08/24 06:24:41;;;;;;;4.68;2.60;;;21.20;99.90;;;;;;5059992;28;20056;-70
2023/08/24 06:27:06;;;;;;;3.83;2.55;;;21.20;99.90;;;;;;5062256;28;20090;-70
2023/08/24 06:29:32;;;;;;;3.80;2.35;;;21.20;99.90;;;;;;5064580;28;20112;-69
2023/08/24 06:31:58;;;;;;;2.65;2.42;;;21.30;99.90;;;;;;5063321;28;20503;-70
2023/08/24 06:34:24;;;;;;;4.43;1.92;;;21.40;99.80;;;;;;5061799;28;20032;-70
2023/08/24 06:36:50;;;;;;;4.22;3.20;;;21.60;99.40;;;;;;5059564;28;20544;-69
2023/08/24 06:39:16;;;;;;;3.85;2.20;;;21.70;99.00;;;;;;5060495;28;20028;-70
2023/08/24 06:41:42;;;;;;;3.28;2.13;;;21.70;99.10;;;;;;5056301;28;20021;-70
2023/08/24 06:44:08;;;;;;;4.70;2.67;;;21.80;99.30;;;;;;5065648;28;20644;-69
2023/08/24 06:46:34;;;;;;;4.90;3.22;;;21.90;99.40;;;;;;5065077;28;20028;-69
2023/08/24 06:48:59;;;;;;;2.67;2.20;;;22.00;99.00;;;;;;5058103;28;20057;-69
2023/08/24 06:51:26;;;;;;;2.97;2.42;;;22.10;98.90;;;;;;5059857;28;20159;-70
2023/08/24 06:53:52;;;;;;;2.78;2.00;;;22.20;98.60;;;;;;5058945;28;20037;-69
2023/08/24 06:56:18;;;;;;;2.83;2.25;;;22.30;98.30;;;;;;5060012;28;20074;-69
2023/08/24 06:58:45;;;;;;;2.45;1.92;;;22.40;98.60;;;;;;5056802;28;20053;-70
2023/08/24 07:01:11;;;;;;;5.32;2.35;;;22.40;98.80;;;;;;5059163;28;20029;-69
2023/08/24 07:03:37;;;;;;;2.47;2.08;;;22.60;97.90;;;;;;5064698;28;20038;-69
2023/08/24 07:06:06;;;;;;;4.18;2.28;;;22.60;97.50;;;;;;5060844;28;20033;-69
2023/08/24 07:08:31;;;;;;;2.50;2.08;;;22.60;97.60;;;;;;5061908;28;20083;-69
2023/08/24 07:10:57;;;;;;;3.80;2.30;;;22.60;97.70;;;;;;5060842;28;20068;-70
2023/08/24 07:13:23;;;;;;;2.60;2.10;;;22.60;97.90;;;;;;5058925;28;20086;-69
2023/08/24 07:15:49;;;;;;;3.70;1.92;;;22.60;97.80;;;;;;5057451;28;20037;-67
2023/08/24 07:18:15;;;;;;;3.13;2.08;;;22.60;97.70;;;;;;5056992;28;20043;-67
2023/08/24 07:20:41;;;;;;;3.22;2.17;;;22.60;98.10;;;;;;5062237;28;20016;-68
2023/08/24 07:23:07;;;;;;;3.75;2.10;;;22.60;98.30;;;;;;5063944;28;20029;-68
2023/08/24 07:25:32;;;;;;;3.10;2.30;;;22.70;97.90;;;;;;5061254;28;20032;-70
2023/08/24 07:27:59;;;;;;;3.08;1.90;;;22.80;97.70;;;;;;5061075;28;20040;-71
2023/08/24 07:30:28;;;;;;;3.03;2.03;;;22.90;97.80;;;;;;5059559;28;20033;-70
2023/08/24 07:32:54;;;;;;;2.28;1.98;;;23.10;98.00;;;;;;5057829;28;20036;-68
2023/08/24 07:35:20;;;;;;;2.25;2.05;;;23.40;98.20;;;;;;5056465;28;20064;-70
2023/08/24 07:37:49;;;;;;;3.38;1.98;;;23.70;96.90;;;;;;5058722;28;20107;-68
2023/08/24 07:40:15;;;;;;;5.25;1.90;;;23.80;95.90;;;;;;5064242;28;20071;-67
2023/08/24 07:42:50;;;;;;;3.17;1.60;;;23.80;95.70;;;;;;5061772;28;20027;-73
2023/08/24 07:45:17;;;;;;;3.22;1.70;;;23.80;95.90;;;;;;5060628;28;20081;-63
2023/08/24 07:47:43;;;;;;;3.35;1.80;;;24.00;95.30;;;;;;5062787;28;20033;-63
2023/08/24 07:50:10;;;;;;;3.90;1.90;;;24.30;94.60;;;;;;5059410;28;20032;-63
2023/08/24 07:52:39;;;;;;;2.90;1.67;;;24.30;94.00;;;;;;5054310;28;20029;-62
2023/08/24 07:55:06;;;;;;;2.55;1.85;;;24.30;93.60;;;;;;5057302;28;20028;-63
2023/08/24 07:57:33;;;;;;;5.53;1.83;;;24.30;93.40;;;;;;5063692;28;20020;-63
2023/08/24 08:00:00;;;;;;;3.65;2.00;;;24.40;93.30;;;;;;5062330;28;20442;-62
2023/08/24 08:02:26;;;;;;;3.25;1.48;;;24.40;94.10;;;;;;5061083;28;20511;-63
2023/08/24 08:04:57;;;;;;;7.25;1.90;;;24.40;94.10;;;;;;5059091;28;20036;-63
2023/08/24 08:07:24;;;;;;;3.55;1.60;;;24.60;94.40;;;;;;5057948;28;20468;-63
2023/08/24 08:09:50;;;;;;;2.40;1.80;;;24.70;94.30;;;;;;5056269;28;20127;-63
2023/08/24 08:12:15;;;;;;;5.28;2.08;;;24.70;94.10;;;;;;5056770;28;20033;-62
2023/08/24 08:14:41;;;;;;;2.03;1.60;;;24.70;94.20;;;;;;5063085;28;20029;-63
2023/08/24 08:17:07;;;;;;;4.95;1.90;;;24.80;94.50;;;;;;5062367;28;20078;-63
2023/08/24 08:19:35;;;;;;;5.05;1.80;;;24.80;94.10;;;;;;5059859;28;20033;-62
2023/08/24 08:22:01;;;;;;;6.47;2.00;;;24.80;94.30;;;;;;5059851;28;20028;-63
2023/08/24 08:24:27;;;;;;;3.70;2.17;;;24.80;94.20;;;;;;5058948;28;20515;-63
2023/08/24 08:26:53;;;;;;;2.17;1.63;;;24.80;94.00;;;;;;5057446;28;20115;-63
2023/08/24 08:29:19;;;;;;;4.53;2.22;;;24.80;94.70;;;;;;5057765;28;20036;-63
2023/08/24 08:31:44;;;;;;;1.92;1.70;;;24.80;94.50;;;;;;5061628;28;20102;-64
2023/08/24 08:34:10;;;;;;;1.95;1.70;;;24.80;94.20;;;;;;5062514;28;20103;-63
2023/08/24 08:36:36;;;;;;;3.38;1.83;;;24.90;94.10;;;;;;5059790;28;20563;-63
2023/08/24 08:39:03;;;;;;;2.92;1.88;;;25.00;93.40;;;;;;5059694;28;20109;-63
2023/08/24 08:41:37;;;;;;;3.20;1.60;;;25.00;93.10;;;;;;5056566;28;20374;-63
2023/08/24 08:44:06;;;;;;;3.08;1.60;;;25.00;93.40;;;;;;5057819;28;20062;-63
2023/08/24 08:46:32;;;;;;;2.45;1.83;;;25.00;93.40;;;;;;5054029;28;20064;-63
2023/08/24 08:49:00;;;;;;;2.08;1.58;;;25.10;93.10;;;;;;5063440;28;20539;-63
2023/08/24 08:51:28;;;;;;;2.38;1.75;;;25.20;92.50;;;;;;5062793;28;20036;-64
2023/08/24 08:53:54;;;;;;;4.00;2.17;;;25.20;92.60;;;;;;5045716;28;20037;-63
2023/08/24 08:56:21;;;;;;;3.95;1.80;;;25.20;93.00;;;;;;5057979;28;20038;-62
2023/08/24 08:58:48;;;;;;;3.53;1.95;;;25.30;92.90;;;;;;5057378;28;20075;-63
2023/08/24 09:01:14;;;;;;;8.60;1.70;;;25.40;92.70;;;;;;5056252;28;20024;-63
2023/08/24 09:03:42;;;;;;;7.25;1.80;;;25.50;91.00;;;;;;5053712;28;20388;-62
2023/08/24 09:06:09;;;;;;;2.03;1.65;;;25.50;91.40;;;;;;5059319;28;20036;-63
2023/08/24 09:08:35;;;;;;;6.13;1.98;;;25.50;91.50;;;;;;5066434;28;20028;-63
2023/08/24 09:11:01;;;;;;;2.67;1.52;;;25.50;91.30;;;;;;5060331;28;20502;-63
2023/08/24 09:13:27;;;;;;;4.38;1.88;;;25.50;91.20;;;;;;5058996;28;20040;-63
2023/08/24 09:15:53;;;;;;;4.65;1.65;;;25.50;90.80;;;;;;5056737;28;20037;-63
2023/08/24 09:18:20;;;;;;;3.17;1.63;;;25.50;91.20;;;;;;5056719;28;20142;-63
2023/08/24 09:20:47;;;;;;;3.38;1.52;;;25.50;91.50;;;;;;5053257;28;20033;-63
2023/08/24 09:23:22;;;;;;;3.65;1.83;;;25.40;91.20;;;;;;5052974;28;20412;-63
2023/08/24 09:25:49;;;;;;;2.15;1.65;;;25.40;90.90;;;;;;5056061;28;20071;-63
2023/08/24 09:28:22;;;;;;;4.28;1.80;;;25.30;91.80;;;;;;5058473;28;20777;-63
2023/08/24 09:30:54;;;;;;;4.72;1.80;;;25.30;91.70;;;;;;5058833;28;20029;-63
2023/08/24 09:33:21;;;;;;;1.90;1.60;;;25.40;91.50;;;;;;5054486;28;20132;-63
2023/08/24 09:35:55;;;;;;;3.08;1.73;;;25.40;91.00;;;;;;5055108;28;20095;-63
2023/08/24 09:38:23;;;;;;;3.00;1.70;;;25.50;91.50;;;;;;5054122;28;20040;-63
2023/08/24 09:40:53;;;;;;;2.65;1.60;;;25.70;91.30;;;;;;5051802;28;20037;-63
2023/08/24 09:43:20;;;;;;;4.70;2.15;;;25.80;91.50;;;;;;5053429;28;20029;-63
2023/08/24 09:45:57;;;;;;;3.83;2.05;;;26.00;89.60;;;;;;5059720;28;20051;-63
2023/08/24 09:48:23;;;;;;;1.75;1.50;;;26.20;88.80;;;;;;5055546;28;20035;-63
2023/08/24 09:50:50;;;;;;;7.43;1.70;;;26.20;86.20;;;;;;5056427;28;20040;-63
2023/08/24 09:53:18;;;;;;;6.20;1.83;;;26.10;87.80;;;;;;5056169;28;20074;-63
2023/08/24 09:55:58;;;;;;;4.85;1.77;;;26.20;86.90;;;;;;5053801;28;20112;-63
2023/08/24 09:58:25;;;;;;;5.60;1.40;;;26.20;86.40;;;;;;5057123;28;20111;-63
2023/08/24 10:00:52;;;;;;;2.20;1.67;;;26.20;89.50;;;;;;5060946;28;20025;-63
2023/08/24 10:03:25;;;;;;;6.25;1.40;;;26.30;86.90;;;;;;5075670;28;20111;-63
2023/08/24 10:05:53;;;;;;;4.93;1.50;;;26.40;86.20;;;;;;5058000;28;20045;-63
2023/08/24 10:08:37;;;;;;;3.47;1.33;;;26.50;85.70;;;;;;5057238;28;20133;-63
2023/08/24 10:11:05;;;;;;;6.82;1.85;;;26.50;85.50;;;;;;5060618;28;20035;-63
2023/08/24 10:13:48;;;;;;;1.70;1.60;;;26.60;85.90;;;;;;5056323;28;20062;-63
2023/08/24 10:16:15;;;;;;;2.83;1.60;;;26.70;84.00;;;;;;5055028;28;20036;-65
2023/08/24 10:18:42;;;;;;;6.00;1.52;;;26.70;83.50;;;;;;5063084;28;20036;-63
2023/08/24 10:21:09;;;;;;;2.42;1.38;;;26.60;82.70;;;;;;5063839;28;20024;-63
2023/08/24 10:23:37;;;;;;;4.40;1.70;;;26.70;83.20;;;;;;5061061;28;20129;-63
2023/08/24 10:26:04;;;;;;;5.00;1.90;;;26.50;83.00;;;;;;5062196;28;20036;-64
2023/08/24 10:28:30;;;;;;;7.22;1.80;;;26.50;83.70;;;;;;5058006;28;20024;-63
2023/08/24 10:30:59;;;;;;;2.25;1.77;;;26.50;83.20;;;;;;5057647;28;20066;-64
2023/08/24 10:33:27;;;;;;;5.00;1.77;;;26.60;82.70;;;;;;5055538;28;20036;-63
2023/08/24 10:35:53;;;;;;;7.72;1.60;;;26.70;82.10;;;;;;5062392;28;20036;-63
2023/08/24 10:38:27;;;;;;;4.00;2.10;;;26.70;82.10;;;;;;5063518;28;20040;-63
2023/08/24 10:40:53;;;;;;;3.42;1.60;;;26.80;83.60;;;;;;5058940;28;20556;-63
2023/08/24 10:43:20;;;;;;;4.32;1.90;;;26.90;81.00;;;;;;5059113;28;20070;-63
2023/08/24 10:45:59;;;;;;;3.75;1.90;;;26.80;82.40;;;;;;5056037;28;20087;-63
2023/08/24 10:48:27;;;;;;;3.45;1.98;;;26.90;82.90;;;;;;5057298;28;20040;-63
2023/08/24 10:51:16;;;;;;;6.35;2.30;;;27.00;81.40;;;;;;5055685;28;20067;-63
2023/08/24 10:53:45;;;;;;;6.57;2.00;;;26.90;79.90;;;;;;5060642;28;20041;-63
2023/08/24 10:56:16;;;;;;;2.75;1.90;;;27.00;81.60;;;;;;5062789;28;20032;-63
2023/08/24 10:58:44;;;;;;;4.68;2.00;;;27.00;81.20;;;;;;5060357;28;20470;-63
2023/08/24 11:01:21;;;;;;;6.50;1.90;;;27.00;80.00;;;;;;5061101;28;20024;-63
2023/08/24 11:03:54;;;;;;;6.13;1.92;;;27.10;80.20;;;;;;5057716;28;20029;-63
2023/08/24 11:06:25;;;;;;;8.23;2.08;;;27.20;80.70;;;;;;5057569;28;20551;-63
2023/08/24 11:09:15;;;;;;;2.67;1.85;;;27.20;80.00;;;;;;5056885;28;20444;-63
2023/08/24 11:11:41;;;;;;;4.63;1.90;;;27.30;79.90;;;;;;5061483;28;20079;-63
2023/08/24 11:14:15;;;;;;;3.42;1.90;;;27.40;79.10;;;;;;5062439;28;20029;-63
2023/08/24 11:16:43;;;;;;;5.10;1.90;;;27.40;79.30;;;;;;5060858;28;20028;-63
2023/08/24 11:19:11;;;;;;;3.60;1.70;;;27.50;80.00;;;;;;5054972;28;20622;-63
2023/08/24 11:21:38;;;;;;;3.90;1.80;;;27.50;79.60;;;;;;5054768;28;20052;-63
2023/08/24 11:24:05;;;;;;;4.72;1.80;;;27.60;78.40;;;;;;5056962;28;20068;-64
2023/08/24 11:26:31;;;;;;;4.60;2.00;;;27.70;79.20;;;;;;5056820;28;20025;-63
2023/08/24 11:28:57;;;;;;;3.40;1.90;;;27.70;77.40;;;;;;5062203;28;20082;-63
2023/08/24 11:31:24;;;;;;;4.85;2.15;;;27.70;76.40;;;;;;5061982;28;20032;-63
2023/08/24 11:33:57;;;;;;;3.17;1.90;;;27.70;76.40;;;;;;5059116;28;20556;-63
2023/08/24 11:36:23;;;;;;;5.60;2.30;;;27.70;78.90;;;;;;5057305;28;20028;-63
2023/08/24 11:38:52;;;;;;;3.58;1.70;;;27.80;78.80;;;;;;5056551;28;20025;-63
2023/08/24 11:41:19;;;;;;;1.73;1.60;;;27.90;77.60;;;;;;5056294;28;20186;-63
2023/08/24 11:43:47;;;;;;;4.10;1.75;;;27.80;75.10;;;;;;5053048;28;20911;-64
2023/08/24 11:46:15;;;;;;;3.72;2.00;;;27.70;75.20;;;;;;5059513;28;20043;-64
2023/08/24 11:48:42;;;;;;;3.53;1.90;;;27.70;75.70;;;;;;5061455;28;20036;-64
2023/08/24 11:51:12;;;;;;;3.80;1.92;;;27.60;76.20;;;;;;5057374;28;20514;-64
2023/08/24 11:53:42;;;;;;;4.35;2.03;;;27.60;76.00;;;;;;5057541;28;20109;-63
2023/08/24 11:56:12;;;;;;;2.55;1.80;;;27.50;76.20;;;;;;5058583;28;20853;-63
2023/08/24 11:58:42;;;;;;;4.00;1.90;;;27.50;77.30;;;;;;5053843;28;20029;-64
2023/08/24 12:01:09;;;;;;;3.03;1.90;;;27.50;77.00;;;;;;5056152;28;20175;-64
2023/08/24 12:03:40;;;;;;;3.08;1.65;;;27.60;77.90;;;;;;5058999;28;20051;-64
2023/08/24 12:06:14;;;;;;;4.70;1.80;;;27.70;78.30;;;;;;5057322;28;20164;-64
2023/08/24 12:08:42;;;;;;;3.70;1.80;;;27.80;76.90;;;;;;5061173;28;20032;-63
2023/08/24 12:11:15;;;;;;;4.03;1.83;;;27.90;75.40;;;;;;5060110;28;20029;-63
2023/08/24 12:13:49;;;;;;;2.67;2.00;;;28.00;78.10;;;;;;5055933;28;20068;-64
2023/08/24 12:16:20;;;;;;;2.97;1.65;;;28.00;74.50;;;;;;5057088;28;20028;-63
2023/08/24 12:18:55;;;;;;;2.03;1.75;;;28.00;76.50;;;;;;5055277;28;20067;-63
2023/08/24 12:21:22;;;;;;;5.68;1.58;;;28.10;75.00;;;;;;5062824;28;20028;-63
2023/08/24 12:24:05;;;;;;;6.63;2.00;;;28.10;74.10;;;;;;5062194;28;20102;-64
2023/08/24 12:26:34;;;;;;;1.95;1.70;;;28.10;75.20;;;;;;5058033;28;20423;-64
2023/08/24 12:29:05;;;;;;;3.00;1.85;;;28.20;73.80;;;;;;5059608;28;20032;-64
2023/08/24 12:31:32;;;;;;;4.95;1.90;;;28.20;73.50;;;;;;5057214;28;20040;-64
2023/08/24 12:34:11;;;;;;;6.57;1.80;;;28.20;73.50;;;;;;5057054;28;20029;-64
2023/08/24 12:36:39;;;;;;;5.82;1.77;;;28.30;74.20;;;;;;5052694;28;20119;-64
2023/08/24 12:39:06;;;;;;;3.05;1.90;;;28.20;73.10;;;;;;5059755;28;20029;-63
2023/08/24 12:41:33;;;;;;;3.95;1.85;;;28.10;74.00;;;;;;5061981;28;20025;-63
2023/08/24 12:44:04;;;;;;;4.60;1.80;;;28.10;73.00;;;;;;5059737;28;20470;-63
2023/08/24 12:46:31;;;;;;;4.20;1.75;;;28.10;73.30;;;;;;5059299;28;20047;-63
2023/08/24 12:48:57;;;;;;;3.15;1.95;;;28.10;72.90;;;;;;5058049;28;20028;-64
2023/08/24 12:51:24;;;;;;;2.38;1.52;;;28.20;72.70;;;;;;5056347;28;20032;-64